sensor_id;sensor_type;location;lat;lon;timestamp;pressure;altitude;pressure_sealevel;temperature;humidity
15489;BME280;7846;48.830;9.116;2022-11-06T00:01:09;98255.53;;;10.24;64.45
15489;BME280;7846;48.830;9.116;2022-11-06T00:03:39;98261.91;;;10.31;64.05
15489;BME280;7846;48.830;9.116;2022-11-06T00:06:07;98249.72;;;10.20;64.17
15489;BME280;7846;48.830;9.116;2022-11-06T00:08:57;98237.69;;;10.17;63.70
15489;BME280;7846;48.830;9.116;2022-11-06T00:11:24;98247.50;;;10.15;64.00
15489;BME280;7846;48.830;9.116;2022-11-06T00:13:49;98238.13;;;10.13;63.88
15489;BME280;7846;48.830;9.116;2022-11-06T00:16:17;98235.91;;;10.08;63.99
15489;BME280;7846;48.830;9.116;2022-11-06T00:18:43;98230.78;;;10.07;63.61
15489;BME280;7846;48.830;9.116;2022-11-06T00:21:11;98237.84;;;10.16;63.74
15489;BME280;7846;48.830;9.116;2022-11-06T00:23:37;98238.06;;;10.23;63.37
15489;BME280;7846;48.830;9.116;2022-11-06T00:26:15;98244.50;;;10.01;65.07
15489;BME280;7846;48.830;9.116;2022-11-06T00:28:41;98246.81;;;9.76;66.61
15489;BME280;7846;48.830;9.116;2022-11-06T00:31:13;98251.94;;;10.15;65.48
15489;BME280;7846;48.830;9.116;2022-11-06T00:33:39;98248.63;;;10.13;64.13
15489;BME280;7846;48.830;9.116;2022-11-06T00:36:09;98256.75;;;10.19;65.70
15489;BME280;7846;48.830;9.116;2022-11-06T00:38:36;98252.22;;;10.12;65.13
15489;BME280;7846;48.830;9.116;2022-11-06T00:41:04;98248.47;;;10.24;64.50
15489;BME280;7846;48.830;9.116;2022-11-06T00:43:30;98242.28;;;10.06;64.54
15489;BME280;7846;48.830;9.116;2022-11-06T00:46:05;98247.75;;;10.22;63.81
15489;BME280;7846;48.830;9.116;2022-11-06T00:48:32;98251.56;;;10.10;64.01
15489;BME280;7846;48.830;9.116;2022-11-06T00:51:02;98253.03;;;10.22;64.19
15489;BME280;7846;48.830;9.116;2022-11-06T00:53:32;98263.06;;;10.09;64.38
15489;BME280;7846;48.830;9.116;2022-11-06T00:56:12;98243.97;;;9.97;64.87
15489;BME280;7846;48.830;9.116;2022-11-06T00:58:38;98256.94;;;10.08;64.54
15489;BME280;7846;48.830;9.116;2022-11-06T01:01:16;98248.34;;;10.16;63.85
15489;BME280;7846;48.830;9.116;2022-11-06T01:03:43;98257.25;;;10.05;64.04
15489;BME280;7846;48.830;9.116;2022-11-06T01:06:17;98252.00;;;10.05;63.80
15489;BME280;7846;48.830;9.116;2022-11-06T01:08:44;98257.97;;;9.98;64.00
15489;BME280;7846;48.830;9.116;2022-11-06T01:11:23;98253.25;;;10.01;63.72
15489;BME280;7846;48.830;9.116;2022-11-06T01:13:52;98262.53;;;9.86;63.71
15489;BME280;7846;48.830;9.116;2022-11-06T01:16:18;98252.72;;;9.78;63.71
15489;BME280;7846;48.830;9.116;2022-11-06T01:18:44;98249.31;;;9.68;65.57
15489;BME280;7846;48.830;9.116;2022-11-06T01:21:20;98241.53;;;9.76;65.53
15489;BME280;7846;48.830;9.116;2022-11-06T01:23:46;98242.78;;;9.72;64.89
15489;BME280;7846;48.830;9.116;2022-11-06T01:26:14;98236.13;;;9.87;64.47
15489;BME280;7846;48.830;9.116;2022-11-06T01:28:42;98234.16;;;9.89;64.07
15489;BME280;7846;48.830;9.116;2022-11-06T01:31:13;98255.91;;;9.91;63.85
15489;BME280;7846;48.830;9.116;2022-11-06T01:33:39;98241.81;;;9.63;65.25
15489;BME280;7846;48.830;9.116;2022-11-06T01:36:07;98245.81;;;9.87;64.28
15489;BME280;7846;48.830;9.116;2022-11-06T01:38:33;98238.50;;;9.71;65.10
15489;BME280;7846;48.830;9.116;2022-11-06T01:40:58;98241.13;;;9.71;64.23
15489;BME280;7846;48.830;9.116;2022-11-06T01:43:43;98253.28;;;9.82;64.13
15489;BME280;7846;48.830;9.116;2022-11-06T01:46:09;98250.53;;;9.64;63.75
15489;BME280;7846;48.830;9.116;2022-11-06T01:48:37;98237.38;;;9.64;63.82
15489;BME280;7846;48.830;9.116;2022-11-06T01:51:04;98239.63;;;9.49;64.86
15489;BME280;7846;48.830;9.116;2022-11-06T01:53:29;98247.50;;;9.49;64.24
15489;BME280;7846;48.830;9.116;2022-11-06T01:55:58;98234.25;;;9.51;64.37
15489;BME280;7846;48.830;9.116;2022-11-06T01:58:28;98236.88;;;9.41;64.38
15489;BME280;7846;48.830;9.116;2022-11-06T02:00:55;98227.34;;;9.20;64.98
15489;BME280;7846;48.830;9.116;2022-11-06T02:03:20;98238.25;;;9.26;64.17
15489;BME280;7846;48.830;9.116;2022-11-06T02:05:46;98231.91;;;9.28;64.63
15489;BME280;7846;48.830;9.116;2022-11-06T02:08:14;98232.75;;;9.29;64.24
15489;BME280;7846;48.830;9.116;2022-11-06T02:10:40;98235.50;;;9.17;64.67
15489;BME280;7846;48.830;9.116;2022-11-06T02:15:50;98223.88;;;9.39;64.31
15489;BME280;7846;48.830;9.116;2022-11-06T02:18:30;98229.69;;;9.43;64.30
15489;BME280;7846;48.830;9.116;2022-11-06T02:23:45;98227.63;;;9.27;64.48
15489;BME280;7846;48.830;9.116;2022-11-06T02:29:14;98219.63;;;9.38;64.47
15489;BME280;7846;48.830;9.116;2022-11-06T02:31:44;98210.78;;;9.20;64.74
15489;BME280;7846;48.830;9.116;2022-11-06T02:34:13;98201.53;;;9.16;65.23
15489;BME280;7846;48.830;9.116;2022-11-06T02:36:51;98199.69;;;9.26;65.49
15489;BME280;7846;48.830;9.116;2022-11-06T02:39:23;98196.13;;;9.27;64.61
15489;BME280;7846;48.830;9.116;2022-11-06T02:41:52;98196.13;;;9.27;65.25
15489;BME280;7846;48.830;9.116;2022-11-06T02:44:23;98178.94;;;9.23;65.63
15489;BME280;7846;48.830;9.116;2022-11-06T02:46:52;98166.91;;;9.30;64.53
15489;BME280;7846;48.830;9.116;2022-11-06T02:49:28;98165.53;;;9.36;64.26
15489;BME280;7846;48.830;9.116;2022-11-06T02:51:58;98160.84;;;9.30;64.52
15489;BME280;7846;48.830;9.116;2022-11-06T02:54:26;98156.03;;;9.25;64.39
15489;BME280;7846;48.830;9.116;2022-11-06T02:56:56;98157.94;;;9.23;64.43
15489;BME280;7846;48.830;9.116;2022-11-06T02:59:29;98156.56;;;9.29;65.01
15489;BME280;7846;48.830;9.116;2022-11-06T03:01:59;98155.91;;;9.17;64.66
15489;BME280;7846;48.830;9.116;2022-11-06T03:04:33;98150.22;;;9.21;64.75
15489;BME280;7846;48.830;9.116;2022-11-06T03:07:25;98152.56;;;9.15;64.54
15489;BME280;7846;48.830;9.116;2022-11-06T03:09:53;98148.44;;;9.12;64.39
15489;BME280;7846;48.830;9.116;2022-11-06T03:12:29;98146.75;;;9.21;65.23
15489;BME280;7846;48.830;9.116;2022-11-06T03:15:02;98149.41;;;9.21;64.50
15489;BME280;7846;48.830;9.116;2022-11-06T03:22:56;98133.63;;;9.21;64.94
15489;BME280;7846;48.830;9.116;2022-11-06T03:28:00;98139.56;;;9.23;64.04
15489;BME280;7846;48.830;9.116;2022-11-06T03:30:27;98131.56;;;9.25;64.19
15489;BME280;7846;48.830;9.116;2022-11-06T03:33:24;98139.56;;;9.33;64.31
15489;BME280;7846;48.830;9.116;2022-11-06T03:36:00;98133.47;;;9.42;63.86
15489;BME280;7846;48.830;9.116;2022-11-06T03:38:34;98136.38;;;9.29;64.10
15489;BME280;7846;48.830;9.116;2022-11-06T03:41:12;98127.81;;;9.27;64.60
15489;BME280;7846;48.830;9.116;2022-11-06T03:43:43;98129.63;;;9.17;64.54
15489;BME280;7846;48.830;9.116;2022-11-06T03:46:15;98124.22;;;9.18;64.79
15489;BME280;7846;48.830;9.116;2022-11-06T03:48:47;98120.78;;;9.18;64.93
15489;BME280;7846;48.830;9.116;2022-11-06T03:51:24;98114.97;;;9.14;64.72
15489;BME280;7846;48.830;9.116;2022-11-06T03:53:59;98112.78;;;9.00;65.35
15489;BME280;7846;48.830;9.116;2022-11-06T03:56:36;98126.47;;;9.13;64.87
15489;BME280;7846;48.830;9.116;2022-11-06T03:59:04;98125.91;;;9.10;65.09
15489;BME280;7846;48.830;9.116;2022-11-06T04:01:34;98121.34;;;9.12;64.89
15489;BME280;7846;48.830;9.116;2022-11-06T04:04:33;98115.91;;;9.23;63.71
15489;BME280;7846;48.830;9.116;2022-11-06T04:07:09;98094.94;;;9.13;64.32
15489;BME280;7846;48.830;9.116;2022-11-06T04:09:40;98105.88;;;9.09;65.18
15489;BME280;7846;48.830;9.116;2022-11-06T04:12:27;98102.28;;;9.00;65.19
15489;BME280;7846;48.830;9.116;2022-11-06T04:15:16;98096.47;;;9.16;64.86
15489;BME280;7846;48.830;9.116;2022-11-06T04:17:42;98088.63;;;8.87;65.23
15489;BME280;7846;48.830;9.116;2022-11-06T04:20:14;98097.28;;;9.16;64.93
15489;BME280;7846;48.830;9.116;2022-11-06T04:23:19;98089.16;;;9.10;65.02
15489;BME280;7846;48.830;9.116;2022-11-06T04:26:04;98096.88;;;9.21;64.58
15489;BME280;7846;48.830;9.116;2022-11-06T04:29:02;98091.06;;;9.17;64.52
15489;BME280;7846;48.830;9.116;2022-11-06T04:31:44;98088.88;;;9.13;64.60
15489;BME280;7846;48.830;9.116;2022-11-06T04:34:16;98072.25;;;9.22;64.27
15489;BME280;7846;48.830;9.116;2022-11-06T04:37:08;98087.44;;;9.28;64.27
15489;BME280;7846;48.830;9.116;2022-11-06T04:39:44;98084.38;;;9.33;63.71
15489;BME280;7846;48.830;9.116;2022-11-06T04:42:35;98074.34;;;9.18;64.15
15489;BME280;7846;48.830;9.116;2022-11-06T04:45:09;98080.03;;;9.14;64.38
15489;BME280;7846;48.830;9.116;2022-11-06T04:47:37;98072.97;;;9.05;64.23
15489;BME280;7846;48.830;9.116;2022-11-06T04:50:05;98071.59;;;9.10;64.66
15489;BME280;7846;48.830;9.116;2022-11-06T04:52:32;98065.78;;;9.16;63.78
15489;BME280;7846;48.830;9.116;2022-11-06T04:54:58;98062.19;;;9.08;63.72
15489;BME280;7846;48.830;9.116;2022-11-06T04:57:24;98044.13;;;8.85;64.45
15489;BME280;7846;48.830;9.116;2022-11-06T04:59:49;98051.31;;;8.93;64.04
15489;BME280;7846;48.830;9.116;2022-11-06T05:02:32;98050.75;;;9.09;64.00
15489;BME280;7846;48.830;9.116;2022-11-06T05:05:11;98062.78;;;8.92;63.38
15489;BME280;7846;48.830;9.116;2022-11-06T05:07:38;98075.91;;;8.92;63.44
15489;BME280;7846;48.830;9.116;2022-11-06T05:10:03;98075.63;;;8.85;64.27
15489;BME280;7846;48.830;9.116;2022-11-06T05:12:33;98090.00;;;8.81;63.51
15489;BME280;7846;48.830;9.116;2022-11-06T05:14:59;98082.72;;;8.75;63.35
15489;BME280;7846;48.830;9.116;2022-11-06T05:17:26;98092.91;;;8.78;63.29
15489;BME280;7846;48.830;9.116;2022-11-06T05:19:54;98081.31;;;8.90;63.27
15489;BME280;7846;48.830;9.116;2022-11-06T05:22:22;98077.47;;;8.75;62.58
15489;BME280;7846;48.830;9.116;2022-11-06T05:25:07;98079.25;;;8.65;63.31
15489;BME280;7846;48.830;9.116;2022-11-06T05:27:34;98079.53;;;8.42;64.60
15489;BME280;7846;48.830;9.116;2022-11-06T05:30:04;98084.69;;;8.04;67.03
15489;BME280;7846;48.830;9.116;2022-11-06T05:32:30;98096.75;;;8.35;65.38
15489;BME280;7846;48.830;9.116;2022-11-06T05:34:56;98095.53;;;8.49;64.42
15489;BME280;7846;48.830;9.116;2022-11-06T05:37:21;98086.56;;;8.52;63.98
15489;BME280;7846;48.830;9.116;2022-11-06T05:39:50;98080.91;;;8.56;63.21
15489;BME280;7846;48.830;9.116;2022-11-06T05:42:16;98073.72;;;8.48;62.98
15489;BME280;7846;48.830;9.116;2022-11-06T05:44:42;98071.91;;;8.49;62.96
15489;BME280;7846;48.830;9.116;2022-11-06T05:47:13;98072.22;;;8.65;62.81
15489;BME280;7846;48.830;9.116;2022-11-06T05:49:39;98072.34;;;8.44;63.52
15489;BME280;7846;48.830;9.116;2022-11-06T05:52:05;98068.06;;;8.43;63.15
15489;BME280;7846;48.830;9.116;2022-11-06T05:54:30;98066.81;;;8.38;63.53
15489;BME280;7846;48.830;9.116;2022-11-06T05:56:58;98073.94;;;8.26;63.35
15489;BME280;7846;48.830;9.116;2022-11-06T05:59:25;98072.56;;;8.22;63.49
15489;BME280;7846;48.830;9.116;2022-11-06T06:01:56;98092.38;;;8.45;64.11
15489;BME280;7846;48.830;9.116;2022-11-06T06:04:23;98075.91;;;8.24;64.24
15489;BME280;7846;48.830;9.116;2022-11-06T06:06:51;98060.56;;;8.19;63.66
15489;BME280;7846;48.830;9.116;2022-11-06T06:09:20;98068.59;;;8.37;63.53
15489;BME280;7846;48.830;9.116;2022-11-06T06:12:00;98068.72;;;8.36;63.53
15489;BME280;7846;48.830;9.116;2022-11-06T06:14:30;98071.59;;;8.13;64.25
15489;BME280;7846;48.830;9.116;2022-11-06T06:16:56;98080.44;;;8.32;63.24
15489;BME280;7846;48.830;9.116;2022-11-06T06:19:25;98089.56;;;8.28;63.27
15489;BME280;7846;48.830;9.116;2022-11-06T06:21:55;98073.31;;;8.43;63.85
15489;BME280;7846;48.830;9.116;2022-11-06T06:24:47;98067.78;;;8.46;64.77
15489;BME280;7846;48.830;9.116;2022-11-06T06:27:14;98066.22;;;8.34;63.85
15489;BME280;7846;48.830;9.116;2022-11-06T06:29:49;98076.75;;;8.63;63.31
15489;BME280;7846;48.830;9.116;2022-11-06T06:32:52;98053.16;;;8.54;63.11
15489;BME280;7846;48.830;9.116;2022-11-06T06:35:18;98040.97;;;8.33;63.20
15489;BME280;7846;48.830;9.116;2022-11-06T06:37:51;98051.34;;;8.44;63.74
15489;BME280;7846;48.830;9.116;2022-11-06T06:40:20;98057.25;;;8.37;63.35
15489;BME280;7846;48.830;9.116;2022-11-06T06:42:45;98055.59;;;8.36;63.31
15489;BME280;7846;48.830;9.116;2022-11-06T06:45:11;98061.72;;;8.46;63.35
15489;BME280;7846;48.830;9.116;2022-11-06T06:47:36;98061.28;;;8.41;63.59
15489;BME280;7846;48.830;9.116;2022-11-06T06:50:06;98047.22;;;8.61;63.34
15489;BME280;7846;48.830;9.116;2022-11-06T06:52:31;98041.97;;;8.52;63.75
15489;BME280;7846;48.830;9.116;2022-11-06T06:54:57;98044.59;;;8.61;63.36
15489;BME280;7846;48.830;9.116;2022-11-06T06:57:22;98048.59;;;8.65;63.49
15489;BME280;7846;48.830;9.116;2022-11-06T06:59:48;98042.94;;;8.41;64.39
15489;BME280;7846;48.830;9.116;2022-11-06T07:02:14;98036.31;;;8.66;64.16
15489;BME280;7846;48.830;9.116;2022-11-06T07:04:40;98029.22;;;8.86;64.22
15489;BME280;7846;48.830;9.116;2022-11-06T07:07:10;98027.69;;;8.93;64.22
15489;BME280;7846;48.830;9.116;2022-11-06T07:10:01;97998.44;;;9.25;63.69
15489;BME280;7846;48.830;9.116;2022-11-06T07:12:27;98021.81;;;9.18;64.05
15489;BME280;7846;48.830;9.116;2022-11-06T07:14:53;98013.75;;;9.30;63.96
15489;BME280;7846;48.830;9.116;2022-11-06T07:17:18;98012.09;;;9.29;64.12
15489;BME280;7846;48.830;9.116;2022-11-06T07:19:45;98005.84;;;9.39;64.36
15489;BME280;7846;48.830;9.116;2022-11-06T07:22:11;97986.69;;;9.19;64.67
15489;BME280;7846;48.830;9.116;2022-11-06T07:24:39;97984.13;;;9.37;64.70
15489;BME280;7846;48.830;9.116;2022-11-06T07:27:05;97976.69;;;9.60;63.86
15489;BME280;7846;48.830;9.116;2022-11-06T07:29:30;97976.84;;;9.59;63.96
15489;BME280;7846;48.830;9.116;2022-11-06T07:31:58;97979.13;;;9.44;64.10
15489;BME280;7846;48.830;9.116;2022-11-06T07:34:24;97983.59;;;9.61;64.08
15489;BME280;7846;48.830;9.116;2022-11-06T07:36:49;97973.91;;;9.62;64.12
15489;BME280;7846;48.830;9.116;2022-11-06T07:39:15;97962.09;;;9.76;63.92
15489;BME280;7846;48.830;9.116;2022-11-06T07:41:40;97972.47;;;9.95;64.08
15489;BME280;7846;48.830;9.116;2022-11-06T07:44:07;97972.66;;;9.66;64.11
15489;BME280;7846;48.830;9.116;2022-11-06T07:46:33;97957.25;;;9.71;64.97
15489;BME280;7846;48.830;9.116;2022-11-06T07:48:58;97966.69;;;10.09;64.17
15489;BME280;7846;48.830;9.116;2022-11-06T07:51:24;97956.81;;;10.47;63.50
15489;BME280;7846;48.830;9.116;2022-11-06T07:53:52;97943.75;;;10.63;63.21
15489;BME280;7846;48.830;9.116;2022-11-06T07:56:17;97924.03;;;10.68;63.28
15489;BME280;7846;48.830;9.116;2022-11-06T07:58:43;97925.59;;;10.78;63.37
15489;BME280;7846;48.830;9.116;2022-11-06T08:01:15;97926.72;;;11.02;63.08
15489;BME280;7846;48.830;9.116;2022-11-06T08:04:02;97925.88;;;11.35;62.87
15489;BME280;7846;48.830;9.116;2022-11-06T08:06:27;97915.94;;;11.21;63.37
15489;BME280;7846;48.830;9.116;2022-11-06T08:08:53;97921.84;;;11.66;62.67
15489;BME280;7846;48.830;9.116;2022-11-06T08:11:18;97913.53;;;11.44;63.13
15489;BME280;7846;48.830;9.116;2022-11-06T08:13:44;97919.31;;;11.48;62.44
15489;BME280;7846;48.830;9.116;2022-11-06T08:16:11;97911.06;;;11.43;63.68
15489;BME280;7846;48.830;9.116;2022-11-06T08:18:39;97913.00;;;11.32;63.09
15489;BME280;7846;48.830;9.116;2022-11-06T08:21:06;97911.22;;;11.49;63.16
15489;BME280;7846;48.830;9.116;2022-11-06T08:23:32;97905.53;;;11.78;62.61
15489;BME280;7846;48.830;9.116;2022-11-06T08:26:02;97915.22;;;11.53;61.28
15489;BME280;7846;48.830;9.116;2022-11-06T08:28:29;97920.34;;;11.71;62.50
15489;BME280;7846;48.830;9.116;2022-11-06T08:30:54;97928.59;;;11.68;62.60
15489;BME280;7846;48.830;9.116;2022-11-06T08:33:21;97923.72;;;12.30;62.71
15489;BME280;7846;48.830;9.116;2022-11-06T08:35:48;97921.06;;;12.63;62.13
15489;BME280;7846;48.830;9.116;2022-11-06T08:38:14;97916.13;;;12.52;61.12
15489;BME280;7846;48.830;9.116;2022-11-06T08:40:39;97919.78;;;12.51;61.91
15489;BME280;7846;48.830;9.116;2022-11-06T08:43:08;97916.41;;;12.81;61.78
15489;BME280;7846;48.830;9.116;2022-11-06T08:45:41;97914.81;;;13.12;61.02
15489;BME280;7846;48.830;9.116;2022-11-06T08:48:10;97914.78;;;13.20;61.62
15489;BME280;7846;48.830;9.116;2022-11-06T08:50:38;97908.03;;;13.56;61.55
15489;BME280;7846;48.830;9.116;2022-11-06T08:53:06;97900.38;;;13.70;61.38
15489;BME280;7846;48.830;9.116;2022-11-06T08:55:37;97897.63;;;14.09;60.87
15489;BME280;7846;48.830;9.116;2022-11-06T08:58:05;97892.38;;;14.01;60.04
15489;BME280;7846;48.830;9.116;2022-11-06T09:03:39;97898.38;;;13.95;58.98
15489;BME280;7846;48.830;9.116;2022-11-06T09:06:07;97892.56;;;13.99;59.86
15489;BME280;7846;48.830;9.116;2022-11-06T09:08:35;97907.88;;;14.04;60.05
15489;BME280;7846;48.830;9.116;2022-11-06T09:11:05;97901.41;;;14.67;59.42
15489;BME280;7846;48.830;9.116;2022-11-06T09:13:39;97891.84;;;14.81;59.49
15489;BME280;7846;48.830;9.116;2022-11-06T09:16:06;97898.88;;;14.74;58.74
15489;BME280;7846;48.830;9.116;2022-11-06T09:18:33;97902.06;;;14.99;58.46
15489;BME280;7846;48.830;9.116;2022-11-06T09:21:01;97916.59;;;15.18;57.64
15489;BME280;7846;48.830;9.116;2022-11-06T09:23:32;97934.75;;;15.51;56.52
15489;BME280;7846;48.830;9.116;2022-11-06T09:26:00;97945.03;;;15.09;57.08
15489;BME280;7846;48.830;9.116;2022-11-06T09:28:26;97944.34;;;14.63;57.54
15489;BME280;7846;48.830;9.116;2022-11-06T09:30:51;97926.97;;;15.49;58.16
15489;BME280;7846;48.830;9.116;2022-11-06T09:33:17;97921.06;;;15.32;53.83
15489;BME280;7846;48.830;9.116;2022-11-06T09:35:43;97910.72;;;15.88;54.98
15489;BME280;7846;48.830;9.116;2022-11-06T09:38:10;97908.00;;;16.03;57.12
15489;BME280;7846;48.830;9.116;2022-11-06T09:40:46;97908.69;;;16.33;57.05
15489;BME280;7846;48.830;9.116;2022-11-06T09:46:28;97897.06;;;16.62;56.07
15489;BME280;7846;48.830;9.116;2022-11-06T09:49:06;97889.47;;;16.87;54.56
15489;BME280;7846;48.830;9.116;2022-11-06T09:54:21;97881.47;;;17.22;55.26
15489;BME280;7846;48.830;9.116;2022-11-06T09:57:01;97872.06;;;17.26;54.40
15489;BME280;7846;48.830;9.116;2022-11-06T09:59:32;97872.53;;;17.36;55.40
15489;BME280;7846;48.830;9.116;2022-11-06T10:02:30;97865.19;;;17.45;54.38
15489;BME280;7846;48.830;9.116;2022-11-06T10:07:45;97852.69;;;17.46;54.05
15489;BME280;7846;48.830;9.116;2022-11-06T10:10:16;97854.16;;;17.55;52.91
15489;BME280;7846;48.830;9.116;2022-11-06T10:16:22;97850.78;;;18.01;52.80
15489;BME280;7846;48.830;9.116;2022-11-06T10:18:55;97845.66;;;17.99;52.32
15489;BME280;7846;48.830;9.116;2022-11-06T10:21:33;97841.97;;;18.00;51.88
15489;BME280;7846;48.830;9.116;2022-11-06T10:24:18;97824.97;;;18.08;52.60
15489;BME280;7846;48.830;9.116;2022-11-06T10:26:49;97825.34;;;17.98;52.52
15489;BME280;7846;48.830;9.116;2022-11-06T10:29:44;97814.06;;;18.43;51.63
15489;BME280;7846;48.830;9.116;2022-11-06T10:35:00;97795.56;;;18.81;49.99
15489;BME280;7846;48.830;9.116;2022-11-06T10:37:35;97789.41;;;18.80;49.97
15489;BME280;7846;48.830;9.116;2022-11-06T10:40:06;97789.34;;;19.00;49.91
15489;BME280;7846;48.830;9.116;2022-11-06T10:42:40;97787.19;;;19.16;47.79
15489;BME280;7846;48.830;9.116;2022-11-06T10:45:12;97779.81;;;19.18;49.38
15489;BME280;7846;48.830;9.116;2022-11-06T10:47:50;97774.13;;;19.01;48.25
15489;BME280;7846;48.830;9.116;2022-11-06T10:50:18;97774.88;;;19.21;46.95
15489;BME280;7846;48.830;9.116;2022-11-06T10:52:52;97767.41;;;18.92;48.65
15489;BME280;7846;48.830;9.116;2022-11-06T10:58:16;97748.22;;;19.46;46.96
15489;BME280;7846;48.830;9.116;2022-11-06T11:00:43;97734.97;;;19.33;47.15
15489;BME280;7846;48.830;9.116;2022-11-06T11:03:32;97726.09;;;19.71;46.48
15489;BME280;7846;48.830;9.116;2022-11-06T11:06:01;97729.09;;;19.49;46.64
15489;BME280;7846;48.830;9.116;2022-11-06T11:08:33;97722.91;;;19.55;46.16
15489;BME280;7846;48.830;9.116;2022-11-06T11:11:19;97706.44;;;19.58;46.44
15489;BME280;7846;48.830;9.116;2022-11-06T11:16:41;97691.56;;;19.44;45.84
15489;BME280;7846;48.830;9.116;2022-11-06T11:19:47;97688.47;;;19.47;46.38
15489;BME280;7846;48.830;9.116;2022-11-06T11:25:06;97667.03;;;18.97;47.25
15489;BME280;7846;48.830;9.116;2022-11-06T11:27:53;97672.84;;;19.19;46.77
15489;BME280;7846;48.830;9.116;2022-11-06T11:30:22;97667.81;;;19.36;46.88
15489;BME280;7846;48.830;9.116;2022-11-06T11:32:52;97665.75;;;19.63;46.40
15489;BME280;7846;48.830;9.116;2022-11-06T11:35:27;97664.03;;;19.19;46.09
15489;BME280;7846;48.830;9.116;2022-11-06T11:38:09;97654.75;;;19.78;46.21
15489;BME280;7846;48.830;9.116;2022-11-06T11:40:37;97650.47;;;19.45;45.45
15489;BME280;7846;48.830;9.116;2022-11-06T11:43:29;97656.16;;;19.80;46.55
15489;BME280;7846;48.830;9.116;2022-11-06T11:48:52;97634.72;;;20.05;45.34
15489;BME280;7846;48.830;9.116;2022-11-06T11:51:42;97623.75;;;20.14;44.99
15489;BME280;7846;48.830;9.116;2022-11-06T11:56:55;97619.59;;;19.99;45.43
15489;BME280;7846;48.830;9.116;2022-11-06T12:02:11;97606.59;;;19.66;43.62
15489;BME280;7846;48.830;9.116;2022-11-06T12:04:40;97603.09;;;19.41;44.81
15489;BME280;7846;48.830;9.116;2022-11-06T12:07:27;97609.78;;;20.12;43.01
15489;BME280;7846;48.830;9.116;2022-11-06T12:09:53;97604.69;;;19.92;43.08
15489;BME280;7846;48.830;9.116;2022-11-06T12:12:29;97595.88;;;20.40;42.81
15489;BME280;7846;48.830;9.116;2022-11-06T12:17:40;97586.72;;;19.99;43.08
15489;BME280;7846;48.830;9.116;2022-11-06T12:20:13;97576.06;;;20.77;42.72
15489;BME280;7846;48.830;9.116;2022-11-06T12:22:45;97574.41;;;21.42;41.59
15489;BME280;7846;48.830;9.116;2022-11-06T12:25:29;97565.13;;;21.44;42.07
15489;BME280;7846;48.830;9.116;2022-11-06T12:28:01;97557.28;;;21.31;41.48
15489;BME280;7846;48.830;9.116;2022-11-06T12:30:28;97572.16;;;21.97;41.21
15489;BME280;7846;48.830;9.116;2022-11-06T12:33:19;97568.28;;;22.17;40.62
15489;BME280;7846;48.830;9.116;2022-11-06T12:35:56;97552.38;;;22.84;38.98
15489;BME280;7846;48.830;9.116;2022-11-06T12:43:52;97551.56;;;21.27;41.05
15489;BME280;7846;48.830;9.116;2022-11-06T12:57:40;97533.25;;;20.47;42.81
15489;BME280;7846;48.830;9.116;2022-11-06T13:00:20;97528.28;;;20.51;42.82
15489;BME280;7846;48.830;9.116;2022-11-06T13:05:56;97524.22;;;21.49;41.69
15489;BME280;7846;48.830;9.116;2022-11-06T13:11:16;97520.72;;;21.60;41.02
15489;BME280;7846;48.830;9.116;2022-11-06T13:14:13;97511.91;;;22.00;41.18
15489;BME280;7846;48.830;9.116;2022-11-06T13:19:47;97497.16;;;22.43;39.50
15489;BME280;7846;48.830;9.116;2022-11-06T13:22:29;97504.81;;;21.94;40.51
15489;BME280;7846;48.830;9.116;2022-11-06T13:28:34;97501.59;;;21.68;40.58
15489;BME280;7846;48.830;9.116;2022-11-06T13:31:03;97488.91;;;21.64;41.52
15489;BME280;7846;48.830;9.116;2022-11-06T13:33:45;97493.03;;;21.55;41.97
15489;BME280;7846;48.830;9.116;2022-11-06T13:36:12;97499.88;;;21.03;42.43
15489;BME280;7846;48.830;9.116;2022-11-06T13:38:47;97486.09;;;20.65;43.76
15489;BME280;7846;48.830;9.116;2022-11-06T13:41:21;97478.56;;;20.62;43.19
15489;BME280;7846;48.830;9.116;2022-11-06T13:44:06;97485.31;;;20.76;43.47
15489;BME280;7846;48.830;9.116;2022-11-06T13:58:13;97473.25;;;20.13;45.24
15489;BME280;7846;48.830;9.116;2022-11-06T14:01:17;97474.66;;;20.16;46.00
15489;BME280;7846;48.830;9.116;2022-11-06T14:04:21;97469.38;;;19.97;46.33
15489;BME280;7846;48.830;9.116;2022-11-06T14:06:58;97465.22;;;19.83;45.48
15489;BME280;7846;48.830;9.116;2022-11-06T14:09:26;97482.66;;;19.49;46.08
15489;BME280;7846;48.830;9.116;2022-11-06T14:12:00;97486.84;;;19.63;45.80
15489;BME280;7846;48.830;9.116;2022-11-06T14:14:30;97489.63;;;19.50;46.17
15489;BME280;7846;48.830;9.116;2022-11-06T14:22:27;97494.06;;;19.38;46.47
15489;BME280;7846;48.830;9.116;2022-11-06T14:28:05;97486.41;;;18.79;47.89
15489;BME280;7846;48.830;9.116;2022-11-06T14:32:57;97488.25;;;18.79;48.11
15489;BME280;7846;48.830;9.116;2022-11-06T14:38:31;97484.00;;;18.71;48.50
15489;BME280;7846;48.830;9.116;2022-11-06T14:40:58;97476.31;;;18.25;49.11
15489;BME280;7846;48.830;9.116;2022-11-06T14:43:30;97478.31;;;18.36;49.14
15489;BME280;7846;48.830;9.116;2022-11-06T14:46:02;97457.31;;;18.14;49.11
15489;BME280;7846;48.830;9.116;2022-11-06T14:48:41;97464.31;;;18.09;49.82
15489;BME280;7846;48.830;9.116;2022-11-06T14:51:11;97447.50;;;18.08;49.17
15489;BME280;7846;48.830;9.116;2022-11-06T14:53:47;97451.34;;;17.87;50.11
15489;BME280;7846;48.830;9.116;2022-11-06T14:56:26;97443.38;;;17.81;50.18
15489;BME280;7846;48.830;9.116;2022-11-06T14:58:57;97443.41;;;17.61;50.46
15489;BME280;7846;48.830;9.116;2022-11-06T15:01:29;97444.19;;;17.75;49.92
15489;BME280;7846;48.830;9.116;2022-11-06T15:03:58;97431.28;;;17.78;49.94
15489;BME280;7846;48.830;9.116;2022-11-06T15:09:10;97448.75;;;17.61;50.19
15489;BME280;7846;48.830;9.116;2022-11-06T15:16:41;97446.47;;;17.78;49.74
15489;BME280;7846;48.830;9.116;2022-11-06T15:19:30;97447.50;;;17.70;49.70
15489;BME280;7846;48.830;9.116;2022-11-06T15:22:13;97447.22;;;17.33;50.13
15489;BME280;7846;48.830;9.116;2022-11-06T15:24:51;97429.47;;;17.14;50.66
15489;BME280;7846;48.830;9.116;2022-11-06T15:27:27;97439.94;;;17.02;50.16
15489;BME280;7846;48.830;9.116;2022-11-06T15:29:57;97438.09;;;16.96;50.23
15489;BME280;7846;48.830;9.116;2022-11-06T15:32:28;97439.94;;;16.82;50.57
15489;BME280;7846;48.830;9.116;2022-11-06T15:35:03;97437.50;;;16.54;50.98
15489;BME280;7846;48.830;9.116;2022-11-06T15:37:41;97449.56;;;16.50;50.89